sensor_id;sensor_type;location;lat;lon;timestamp;pressure;altitude;pressure_sealevel;temperature;humidity
33161;BME280;19522;45.656;11.302;2023-03-20T00:00:35;98645.91;;;11.01;71.05
33161;BME280;19522;45.656;11.302;2023-03-20T00:03:02;98603.31;;;10.63;71.24
33161;BME280;19522;45.656;11.302;2023-03-20T00:05:28;98640.31;;;10.64;71.61
33161;BME280;19522;45.656;11.302;2023-03-20T00:07:55;98651.28;;;10.71;71.77
33161;BME280;19522;45.656;11.302;2023-03-20T00:10:28;98651.84;;;10.66;72.10
33161;BME280;19522;45.656;11.302;2023-03-20T00:12:55;98621.94;;;10.51;72.15
33161;BME280;19522;45.656;11.302;2023-03-20T00:17:52;98655.13;;;10.62;72.30
33161;BME280;19522;45.656;11.302;2023-03-20T00:20:18;98619.78;;;10.23;72.80
33161;BME280;19522;45.656;11.302;2023-03-20T00:22:44;98623.09;;;10.34;72.90
33161;BME280;19522;45.656;11.302;2023-03-20T00:25:15;98635.13;;;10.31;73.35
33161;BME280;19522;45.656;11.302;2023-03-20T00:27:42;98635.47;;;10.74;72.01
33161;BME280;19522;45.656;11.302;2023-03-20T00:30:28;98633.78;;;10.73;71.28
33161;BME280;19522;45.656;11.302;2023-03-20T00:32:56;98639.81;;;10.46;72.36
33161;BME280;19522;45.656;11.302;2023-03-20T00:35:27;98628.06;;;10.22;73.05
33161;BME280;19522;45.656;11.302;2023-03-20T00:37:55;98645.69;;;10.26;73.25
33161;BME280;19522;45.656;11.302;2023-03-20T00:40:24;98635.63;;;10.11;73.61
33161;BME280;19522;45.656;11.302;2023-03-20T00:42:57;98621.22;;;10.11;73.62
33161;BME280;19522;45.656;11.302;2023-03-20T00:45:23;98634.72;;;10.19;73.81
33161;BME280;19522;45.656;11.302;2023-03-20T00:47:50;98633.09;;;10.33;73.09
33161;BME280;19522;45.656;11.302;2023-03-20T00:50:24;98621.94;;;10.28;73.28
33161;BME280;19522;45.656;11.302;2023-03-20T00:52:51;98628.63;;;10.17;73.58
33161;BME280;19522;45.656;11.302;2023-03-20T00:55:19;98638.03;;;10.06;74.57
33161;BME280;19522;45.656;11.302;2023-03-20T00:57:56;98620.88;;;9.82;75.07
33161;BME280;19522;45.656;11.302;2023-03-20T01:02:57;98639.34;;;9.87;75.32
33161;BME280;19522;45.656;11.302;2023-03-20T01:05:25;98635.31;;;9.83;75.30
33161;BME280;19522;45.656;11.302;2023-03-20T01:07:50;98630.97;;;9.74;75.85
33161;BME280;19522;45.656;11.302;2023-03-20T01:10:16;98627.22;;;9.43;77.14
33161;BME280;19522;45.656;11.302;2023-03-20T01:12:42;98572.88;;;8.97;78.13
33161;BME280;19522;45.656;11.302;2023-03-20T01:15:23;98616.28;;;9.20;78.93
33161;BME280;19522;45.656;11.302;2023-03-20T01:17:50;98628.16;;;9.19;78.44
33161;BME280;19522;45.656;11.302;2023-03-20T01:20:26;98588.56;;;9.10;78.20
33161;BME280;19522;45.656;11.302;2023-03-20T01:22:52;98622.44;;;9.14;78.46
33161;BME280;19522;45.656;11.302;2023-03-20T01:25:18;98612.97;;;9.01;78.42
33161;BME280;19522;45.656;11.302;2023-03-20T01:27:49;98630.44;;;8.99;79.09
33161;BME280;19522;45.656;11.302;2023-03-20T01:30:19;98630.00;;;8.79;79.61
33161;BME280;19522;45.656;11.302;2023-03-20T01:32:45;98602.56;;;8.73;79.40
33161;BME280;19522;45.656;11.302;2023-03-20T01:35:16;98630.50;;;8.66;79.88
33161;BME280;19522;45.656;11.302;2023-03-20T01:37:43;98630.66;;;8.23;82.44
33161;BME280;19522;45.656;11.302;2023-03-20T01:40:30;98617.13;;;8.15;83.41
33161;BME280;19522;45.656;11.302;2023-03-20T01:43:00;98611.44;;;8.51;81.73
33161;BME280;19522;45.656;11.302;2023-03-20T01:45:33;98612.06;;;8.53;81.67
33161;BME280;19522;45.656;11.302;2023-03-20T01:48:04;98613.72;;;8.70;80.86
33161;BME280;19522;45.656;11.302;2023-03-20T01:50:36;98612.75;;;8.63;80.68
33161;BME280;19522;45.656;11.302;2023-03-20T01:53:15;98617.16;;;8.56;80.96
33161;BME280;19522;45.656;11.302;2023-03-20T01:55:42;98589.41;;;8.37;81.04
33161;BME280;19522;45.656;11.302;2023-03-20T01:58:18;98604.63;;;8.55;80.33
33161;BME280;19522;45.656;11.302;2023-03-20T02:00:46;98597.03;;;8.50;80.23
33161;BME280;19522;45.656;11.302;2023-03-20T02:03:14;98616.31;;;8.64;79.78
33161;BME280;19522;45.656;11.302;2023-03-20T02:05:41;98615.28;;;8.65;79.85
33161;BME280;19522;45.656;11.302;2023-03-20T02:10:43;98614.59;;;8.71;79.35
33161;BME280;19522;45.656;11.302;2023-03-20T02:13:09;98607.09;;;8.89;78.28
33161;BME280;19522;45.656;11.302;2023-03-20T02:15:35;98602.59;;;8.65;79.39
33161;BME280;19522;45.656;11.302;2023-03-20T02:18:01;98593.50;;;8.50;79.43
33161;BME280;19522;45.656;11.302;2023-03-20T02:20:44;98607.19;;;8.65;79.80
33161;BME280;19522;45.656;11.302;2023-03-20T02:43:19;98598.69;;;8.60;79.03
33161;BME280;19522;45.656;11.302;2023-03-20T02:46:12;98597.00;;;8.75;78.71
33161;BME280;19522;45.656;11.302;2023-03-20T02:49:02;98603.94;;;8.69;78.88
33161;BME280;19522;45.656;11.302;2023-03-20T02:57:00;98600.19;;;8.70;79.09
33161;BME280;19522;45.656;11.302;2023-03-20T02:59:45;98595.94;;;8.76;78.53
33161;BME280;19522;45.656;11.302;2023-03-20T03:03:04;98601.53;;;8.83;78.29
33161;BME280;19522;45.656;11.302;2023-03-20T03:05:20;98593.41;;;8.83;77.97
33161;BME280;19522;45.656;11.302;2023-03-20T03:07:49;98599.81;;;8.90;77.94
33161;BME280;19522;45.656;11.302;2023-03-20T03:10:21;98589.84;;;8.91;78.09
33161;BME280;19522;45.656;11.302;2023-03-20T03:12:48;98585.59;;;8.96;78.05
33161;BME280;19522;45.656;11.302;2023-03-20T03:15:41;98595.91;;;9.01;77.86
33161;BME280;19522;45.656;11.302;2023-03-20T03:18:12;98595.59;;;8.87;78.12
33161;BME280;19522;45.656;11.302;2023-03-20T03:20:38;98592.84;;;8.96;78.35
33161;BME280;19522;45.656;11.302;2023-03-20T03:23:05;98597.78;;;8.92;78.18
33161;BME280;19522;45.656;11.302;2023-03-20T03:25:37;98589.31;;;8.95;77.89
33161;BME280;19522;45.656;11.302;2023-03-20T03:28:09;98590.81;;;8.98;77.88
33161;BME280;19522;45.656;11.302;2023-03-20T03:30:41;98574.41;;;8.91;78.00
33161;BME280;19522;45.656;11.302;2023-03-20T03:35:36;98589.78;;;9.07;77.62
33161;BME280;19522;45.656;11.302;2023-03-20T03:40:45;98592.44;;;9.15;77.62
33161;BME280;19522;45.656;11.302;2023-03-20T03:43:33;98590.59;;;9.16;77.68
33161;BME280;19522;45.656;11.302;2023-03-20T03:46:05;98594.31;;;9.15;78.07
33161;BME280;19522;45.656;11.302;2023-03-20T03:48:39;98586.88;;;9.17;77.63
33161;BME280;19522;45.656;11.302;2023-03-20T03:51:30;98584.66;;;9.20;77.70
33161;BME280;19522;45.656;11.302;2023-03-20T03:54:17;98567.56;;;9.12;76.78
33161;BME280;19522;45.656;11.302;2023-03-20T03:56:46;98585.13;;;9.24;76.59
33161;BME280;19522;45.656;11.302;2023-03-20T03:59:26;98584.41;;;9.30;76.07
33161;BME280;19522;45.656;11.302;2023-03-20T04:01:54;98585.63;;;9.28;76.14
33161;BME280;19522;45.656;11.302;2023-03-20T04:04:21;98562.88;;;9.06;75.99
33161;BME280;19522;45.656;11.302;2023-03-20T04:06:48;98587.84;;;9.24;76.41
33161;BME280;19522;45.656;11.302;2023-03-20T04:09:13;98589.69;;;9.24;76.13
33161;BME280;19522;45.656;11.302;2023-03-20T04:11:39;98591.91;;;9.20;76.57
33161;BME280;19522;45.656;11.302;2023-03-20T04:14:04;98536.88;;;8.88;76.64
33161;BME280;19522;45.656;11.302;2023-03-20T04:16:30;98563.69;;;9.06;77.46
33161;BME280;19522;45.656;11.302;2023-03-20T04:18:55;98589.34;;;9.27;76.72
33161;BME280;19522;45.656;11.302;2023-03-20T04:21:21;98584.41;;;9.30;76.58
33161;BME280;19522;45.656;11.302;2023-03-20T04:23:47;98583.22;;;9.33;76.48
33161;BME280;19522;45.656;11.302;2023-03-20T04:26:13;98573.28;;;9.25;76.86
33161;BME280;19522;45.656;11.302;2023-03-20T04:28:38;98544.91;;;9.04;76.55
33161;BME280;19522;45.656;11.302;2023-03-20T04:31:04;98574.44;;;9.31;76.41
33161;BME280;19522;45.656;11.302;2023-03-20T04:33:30;98581.50;;;9.40;75.83
33161;BME280;19522;45.656;11.302;2023-03-20T04:35:55;98571.53;;;9.32;76.00
33161;BME280;19522;45.656;11.302;2023-03-20T04:38:21;98554.31;;;9.25;75.88
33161;BME280;19522;45.656;11.302;2023-03-20T04:40:47;98577.94;;;9.40;75.92
33161;BME280;19522;45.656;11.302;2023-03-20T04:43:14;98580.28;;;9.43;76.04
33161;BME280;19522;45.656;11.302;2023-03-20T04:45:40;98577.59;;;9.43;76.04
33161;BME280;19522;45.656;11.302;2023-03-20T04:48:06;98579.94;;;9.46;75.84
33161;BME280;19522;45.656;11.302;2023-03-20T04:50:32;98578.94;;;9.47;75.78
33161;BME280;19522;45.656;11.302;2023-03-20T04:52:57;98574.16;;;9.49;76.05
33161;BME280;19522;45.656;11.302;2023-03-20T04:55:23;98555.06;;;9.42;75.99
33161;BME280;19522;45.656;11.302;2023-03-20T04:57:48;98549.94;;;9.16;77.44
33161;BME280;19522;45.656;11.302;2023-03-20T05:00:14;98540.47;;;9.43;76.56
33161;BME280;19522;45.656;11.302;2023-03-20T05:02:42;98561.13;;;9.76;75.38
33161;BME280;19522;45.656;11.302;2023-03-20T05:05:08;98558.03;;;9.56;76.52
33161;BME280;19522;45.656;11.302;2023-03-20T05:07:33;98550.47;;;9.43;77.02
33161;BME280;19522;45.656;11.302;2023-03-20T05:09:59;98530.59;;;9.27;77.14
33161;BME280;19522;45.656;11.302;2023-03-20T05:12:25;98551.50;;;9.42;77.00
33161;BME280;19522;45.656;11.302;2023-03-20T05:14:52;98504.47;;;9.03;77.16
33161;BME280;19522;45.656;11.302;2023-03-20T05:17:20;98557.66;;;9.35;77.22
33161;BME280;19522;45.656;11.302;2023-03-20T05:19:46;98523.44;;;8.95;77.97
33161;BME280;19522;45.656;11.302;2023-03-20T05:22:12;98530.97;;;9.16;77.65
33161;BME280;19522;45.656;11.302;2023-03-20T05:24:37;98561.81;;;9.46;77.40
33161;BME280;19522;45.656;11.302;2023-03-20T05:27:03;98567.94;;;9.40;77.81
33161;BME280;19522;45.656;11.302;2023-03-20T05:29:29;98571.78;;;9.23;78.51
33161;BME280;19522;45.656;11.302;2023-03-20T05:31:54;98566.25;;;8.99;79.43
33161;BME280;19522;45.656;11.302;2023-03-20T05:34:20;98575.28;;;8.92;80.03
33161;BME280;19522;45.656;11.302;2023-03-20T05:36:46;98547.56;;;8.81;79.53
33161;BME280;19522;45.656;11.302;2023-03-20T05:39:12;98584.88;;;9.02;79.38
33161;BME280;19522;45.656;11.302;2023-03-20T05:41:37;98578.75;;;9.17;78.93
33161;BME280;19522;45.656;11.302;2023-03-20T05:44:03;98594.63;;;9.20;79.42
33161;BME280;19522;45.656;11.302;2023-03-20T05:46:28;98595.25;;;9.30;79.66
33161;BME280;19522;45.656;11.302;2023-03-20T05:48:54;98590.06;;;9.20;79.86
33161;BME280;19522;45.656;11.302;2023-03-20T05:51:20;98593.31;;;9.16;80.00
33161;BME280;19522;45.656;11.302;2023-03-20T05:53:46;98589.63;;;9.09;79.83
33161;BME280;19522;45.656;11.302;2023-03-20T05:56:11;98591.47;;;9.08;79.53
33161;BME280;19522;45.656;11.302;2023-03-20T05:58:37;98600.72;;;8.74;81.14
33161;BME280;19522;45.656;11.302;2023-03-20T06:01:02;98577.06;;;8.60;82.20
33161;BME280;19522;45.656;11.302;2023-03-20T06:03:28;98598.00;;;8.82;81.71
33161;BME280;19522;45.656;11.302;2023-03-20T06:05:53;98590.34;;;8.86;82.12
33161;BME280;19522;45.656;11.302;2023-03-20T06:08:19;98587.66;;;8.86;82.15
33161;BME280;19522;45.656;11.302;2023-03-20T06:10:45;98592.72;;;8.89;81.93
33161;BME280;19522;45.656;11.302;2023-03-20T06:13:11;98600.81;;;8.97;81.04
33161;BME280;19522;45.656;11.302;2023-03-20T06:15:36;98602.22;;;8.85;81.41
33161;BME280;19522;45.656;11.302;2023-03-20T06:18:02;98584.44;;;8.82;81.50
33161;BME280;19522;45.656;11.302;2023-03-20T06:20:27;98612.13;;;9.09;80.13
33161;BME280;19522;45.656;11.302;2023-03-20T06:22:53;98588.16;;;8.81;80.50
33161;BME280;19522;45.656;11.302;2023-03-20T06:25:19;98618.66;;;8.75;81.22
33161;BME280;19522;45.656;11.302;2023-03-20T06:27:46;98626.38;;;8.95;81.18
33161;BME280;19522;45.656;11.302;2023-03-20T06:30:13;98626.94;;;8.73;82.00
33161;BME280;19522;45.656;11.302;2023-03-20T06:32:39;98627.94;;;8.81;82.14
33161;BME280;19522;45.656;11.302;2023-03-20T06:35:05;98600.25;;;8.54;82.14
33161;BME280;19522;45.656;11.302;2023-03-20T06:37:32;98620.38;;;8.60;82.07
33161;BME280;19522;45.656;11.302;2023-03-20T06:39:57;98643.19;;;8.73;81.77
33161;BME280;19522;45.656;11.302;2023-03-20T06:42:23;98647.72;;;8.89;81.42
33161;BME280;19522;45.656;11.302;2023-03-20T06:44:49;98618.94;;;8.88;80.26
33161;BME280;19522;45.656;11.302;2023-03-20T06:47:15;98648.31;;;9.16;79.70
33161;BME280;19522;45.656;11.302;2023-03-20T06:49:40;98655.66;;;8.99;80.99
33161;BME280;19522;45.656;11.302;2023-03-20T06:52:07;98638.78;;;8.89;81.06
33161;BME280;19522;45.656;11.302;2023-03-20T06:54:33;98656.69;;;8.98;81.39
33161;BME280;19522;45.656;11.302;2023-03-20T06:56:59;98654.28;;;9.03;81.80
33161;BME280;19522;45.656;11.302;2023-03-20T06:59:25;98665.09;;;9.12;81.54
33161;BME280;19522;45.656;11.302;2023-03-20T07:01:51;98644.78;;;9.16;81.28
33161;BME280;19522;45.656;11.302;2023-03-20T07:04:17;98655.91;;;9.38;80.79
33161;BME280;19522;45.656;11.302;2023-03-20T07:06:42;98633.88;;;9.32;80.23
33161;BME280;19522;45.656;11.302;2023-03-20T07:09:08;98665.59;;;9.63;79.71
33161;BME280;19522;45.656;11.302;2023-03-20T07:11:33;98662.59;;;9.81;79.36
33161;BME280;19522;45.656;11.302;2023-03-20T07:13:59;98651.53;;;9.91;78.74
33161;BME280;19522;45.656;11.302;2023-03-20T07:16:25;98671.75;;;10.12;77.46
33161;BME280;19522;45.656;11.302;2023-03-20T07:18:51;98641.25;;;10.10;76.88
33161;BME280;19522;45.656;11.302;2023-03-20T07:21:20;98651.97;;;10.26;76.64
33161;BME280;19522;45.656;11.302;2023-03-20T07:23:47;98661.53;;;10.46;76.65
33161;BME280;19522;45.656;11.302;2023-03-20T07:26:13;98653.25;;;10.39;76.33
33161;BME280;19522;45.656;11.302;2023-03-20T07:28:39;98664.09;;;10.62;75.33
33161;BME280;19522;45.656;11.302;2023-03-20T07:31:04;98661.84;;;10.66;74.94
33161;BME280;19522;45.656;11.302;2023-03-20T07:33:30;98664.41;;;10.82;74.71
33161;BME280;19522;45.656;11.302;2023-03-20T07:35:56;98667.06;;;10.90;74.12
33161;BME280;19522;45.656;11.302;2023-03-20T07:38:22;98656.78;;;11.01;73.63
33161;BME280;19522;45.656;11.302;2023-03-20T07:40:48;98647.56;;;11.02;73.51
33161;BME280;19522;45.656;11.302;2023-03-20T07:43:15;98640.38;;;11.09;72.85
33161;BME280;19522;45.656;11.302;2023-03-20T07:45:41;98656.75;;;11.31;72.34
33161;BME280;19522;45.656;11.302;2023-03-20T07:48:06;98662.13;;;11.24;72.18
33161;BME280;19522;45.656;11.302;2023-03-20T07:50:32;98667.25;;;11.19;71.61
33161;BME280;19522;45.656;11.302;2023-03-20T07:52:58;98668.03;;;11.28;72.11
33161;BME280;19522;45.656;11.302;2023-03-20T07:55:24;98605.50;;;11.28;71.26
33161;BME280;19522;45.656;11.302;2023-03-20T07:57:49;98668.44;;;11.76;69.79
33161;BME280;19522;45.656;11.302;2023-03-20T08:00:16;98628.88;;;11.95;68.45
33161;BME280;19522;45.656;11.302;2023-03-20T08:02:42;98634.38;;;12.17;66.55
33161;BME280;19522;45.656;11.302;2023-03-20T08:05:08;98666.16;;;12.82;65.76
33161;BME280;19522;45.656;11.302;2023-03-20T08:07:34;98668.56;;;13.62;63.32
33161;BME280;19522;45.656;11.302;2023-03-20T08:10:00;98658.88;;;14.08;60.47
33161;BME280;19522;45.656;11.302;2023-03-20T08:12:26;98642.22;;;13.96;59.14
33161;BME280;19522;45.656;11.302;2023-03-20T08:14:51;98654.41;;;13.93;58.19
33161;BME280;19522;45.656;11.302;2023-03-20T08:17:17;98656.00;;;14.43;57.77
33161;BME280;19522;45.656;11.302;2023-03-20T08:19:43;98623.41;;;14.48;56.56
33161;BME280;19522;45.656;11.302;2023-03-20T08:22:09;98649.44;;;14.24;57.18
33161;BME280;19522;45.656;11.302;2023-03-20T08:24:35;98641.72;;;13.65;59.48
33161;BME280;19522;45.656;11.302;2023-03-20T08:27:00;98642.41;;;13.04;61.71
33161;BME280;19522;45.656;11.302;2023-03-20T08:29:26;98659.66;;;13.11;62.39
33161;BME280;19522;45.656;11.302;2023-03-20T08:31:51;98650.66;;;13.11;62.28
33161;BME280;19522;45.656;11.302;2023-03-20T08:34:17;98608.59;;;12.63;61.53
33161;BME280;19522;45.656;11.302;2023-03-20T08:36:43;98633.78;;;13.35;60.42
33161;BME280;19522;45.656;11.302;2023-03-20T08:39:08;98631.84;;;13.64;57.97
33161;BME280;19522;45.656;11.302;2023-03-20T08:41:38;98657.66;;;14.17;58.15
33161;BME280;19522;45.656;11.302;2023-03-20T08:44:05;98621.44;;;13.88;56.11
33161;BME280;19522;45.656;11.302;2023-03-20T08:46:31;98630.34;;;14.30;55.02
33161;BME280;19522;45.656;11.302;2023-03-20T08:48:56;98614.50;;;13.92;55.81
33161;BME280;19522;45.656;11.302;2023-03-20T08:51:24;98645.69;;;14.31;55.45
33161;BME280;19522;45.656;11.302;2023-03-20T08:53:49;98630.91;;;13.99;54.87
33161;BME280;19522;45.656;11.302;2023-03-20T08:56:15;98642.25;;;13.89;55.59
33161;BME280;19522;45.656;11.302;2023-03-20T08:58:41;98637.81;;;13.88;56.00
33161;BME280;19522;45.656;11.302;2023-03-20T09:01:07;98643.19;;;14.57;55.09
33161;BME280;19522;45.656;11.302;2023-03-20T09:03:33;98644.88;;;14.78;53.57
33161;BME280;19522;45.656;11.302;2023-03-20T09:05:59;98632.47;;;14.55;53.63
33161;BME280;19522;45.656;11.302;2023-03-20T09:08:25;98645.03;;;14.29;54.77
33161;BME280;19522;45.656;11.302;2023-03-20T09:10:51;98646.31;;;14.33;53.35
33161;BME280;19522;45.656;11.302;2023-03-20T09:13:16;98641.94;;;14.93;51.87
33161;BME280;19522;45.656;11.302;2023-03-20T09:15:42;98631.84;;;14.93;51.09
33161;BME280;19522;45.656;11.302;2023-03-20T09:18:08;98611.22;;;14.57;51.47
33161;BME280;19522;45.656;11.302;2023-03-20T09:20:33;98630.34;;;15.11;51.47
33161;BME280;19522;45.656;11.302;2023-03-20T09:22:59;98627.22;;;14.60;51.29
33161;BME280;19522;45.656;11.302;2023-03-20T09:25:25;98640.22;;;14.58;52.12
33161;BME280;19522;45.656;11.302;2023-03-20T09:27:51;98635.19;;;14.35;52.61
33161;BME280;19522;45.656;11.302;2023-03-20T09:30:20;98633.06;;;14.24;53.22
33161;BME280;19522;45.656;11.302;2023-03-20T09:32:47;98607.00;;;14.08;52.61
33161;BME280;19522;45.656;11.302;2023-03-20T09:35:13;98605.97;;;14.49;52.71
33161;BME280;19522;45.656;11.302;2023-03-20T09:37:38;98616.91;;;14.49;51.47
33161;BME280;19522;45.656;11.302;2023-03-20T09:40:05;98635.03;;;14.70;52.25
33161;BME280;19522;45.656;11.302;2023-03-20T09:43:01;98634.75;;;14.58;51.41
33161;BME280;19522;45.656;11.302;2023-03-20T09:45:50;98633.72;;;14.46;50.93
33161;BME280;19522;45.656;11.302;2023-03-20T09:48:32;98608.44;;;13.97;51.09
33161;BME280;19522;45.656;11.302;2023-03-20T09:51:12;98637.31;;;14.33;51.14
33161;BME280;19522;45.656;11.302;2023-03-20T09:53:46;98602.84;;;14.32;51.09
33161;BME280;19522;45.656;11.302;2023-03-20T09:56:16;98629.63;;;13.95;50.91
33161;BME280;19522;45.656;11.302;2023-03-20T09:58:56;98635.53;;;14.05;51.70
33161;BME280;19522;45.656;11.302;2023-03-20T10:01:25;98626.72;;;14.03;50.63
33161;BME280;19522;45.656;11.302;2023-03-20T10:04:06;98627.50;;;13.90;52.19
33161;BME280;19522;45.656;11.302;2023-03-20T10:06:33;98618.38;;;14.38;50.48
33161;BME280;19522;45.656;11.302;2023-03-20T10:08:59;98618.38;;;14.65;50.33
33161;BME280;19522;45.656;11.302;2023-03-20T10:14:26;98616.72;;;14.77;49.28
33161;BME280;19522;45.656;11.302;2023-03-20T10:19:42;98628.91;;;15.02;48.05
33161;BME280;19522;45.656;11.302;2023-03-20T10:22:31;98616.66;;;15.18;48.61
33161;BME280;19522;45.656;11.302;2023-03-20T10:34:02;98615.63;;;15.71;46.20
33161;BME280;19522;45.656;11.302;2023-03-20T10:41:48;98593.50;;;16.11;45.18
33161;BME280;19522;45.656;11.302;2023-03-20T10:44:25;98607.56;;;15.83;46.79
33161;BME280;19522;45.656;11.302;2023-03-20T10:46:55;98586.72;;;15.88;45.83
33161;BME280;19522;45.656;11.302;2023-03-20T10:49:35;98604.91;;;16.15;46.30
33161;BME280;19522;45.656;11.302;2023-03-20T10:52:08;98599.44;;;16.08;45.98
33161;BME280;19522;45.656;11.302;2023-03-20T10:54:41;98598.81;;;16.06;45.69
33161;BME280;19522;45.656;11.302;2023-03-20T10:57:23;98594.25;;;16.00;46.72
33161;BME280;19522;45.656;11.302;2023-03-20T10:59:50;98579.69;;;16.57;46.45
33161;BME280;19522;45.656;11.302;2023-03-20T11:02:18;98591.00;;;16.10;46.99
33161;BME280;19522;45.656;11.302;2023-03-20T11:04:44;98581.72;;;16.43;45.67
33161;BME280;19522;45.656;11.302;2023-03-20T11:09:36;98550.56;;;16.05;46.01
33161;BME280;19522;45.656;11.302;2023-03-20T11:12:03;98580.34;;;16.27;46.41
33161;BME280;19522;45.656;11.302;2023-03-20T11:14:35;98572.38;;;15.93;45.68
33161;BME280;19522;45.656;11.302;2023-03-20T11:17:03;98576.91;;;15.67;46.90
33161;BME280;19522;45.656;11.302;2023-03-20T11:19:35;98583.59;;;15.78;46.51
33161;BME280;19522;45.656;11.302;2023-03-20T11:22:20;98570.31;;;15.75;45.81
33161;BME280;19522;45.656;11.302;2023-03-20T11:24:51;98571.88;;;16.03;46.84
33161;BME280;19522;45.656;11.302;2023-03-20T11:27:26;98563.25;;;15.99;45.50
33161;BME280;19522;45.656;11.302;2023-03-20T11:29:53;98575.22;;;16.37;46.77
33161;BME280;19522;45.656;11.302;2023-03-20T11:32:26;98578.53;;;15.75;46.66
33161;BME280;19522;45.656;11.302;2023-03-20T11:34:54;98577.19;;;15.52;48.23
33161;BME280;19522;45.656;11.302;2023-03-20T11:37:24;98573.38;;;15.53;47.77
33161;BME280;19522;45.656;11.302;2023-03-20T11:42:28;98561.25;;;15.81;48.17
33161;BME280;19522;45.656;11.302;2023-03-20T11:45:19;98532.63;;;15.77;48.40
33161;BME280;19522;45.656;11.302;2023-03-20T11:47:49;98565.97;;;16.06;47.34
33161;BME280;19522;45.656;11.302;2023-03-20T11:50:36;98554.47;;;15.91;47.52
33161;BME280;19522;45.656;11.302;2023-03-20T11:53:14;98552.41;;;15.79;47.92
33161;BME280;19522;45.656;11.302;2023-03-20T11:55:45;98544.47;;;16.03;48.25
33161;BME280;19522;45.656;11.302;2023-03-20T11:58:22;98535.56;;;16.14;47.97
33161;BME280;19522;45.656;11.302;2023-03-20T12:00:50;98530.38;;;16.75;46.14
33161;BME280;19522;45.656;11.302;2023-03-20T12:03:45;98527.69;;;16.94;45.03
33161;BME280;19522;45.656;11.302;2023-03-20T12:06:20;98534.97;;;17.37;46.20
33161;BME280;19522;45.656;11.302;2023-03-20T12:11:30;98530.63;;;17.79;43.01
33161;BME280;19522;45.656;11.302;2023-03-20T12:14:01;98523.84;;;17.32;43.27
33161;BME280;19522;45.656;11.302;2023-03-20T12:16:31;98500.38;;;17.67;44.21
33161;BME280;19522;45.656;11.302;2023-03-20T12:19:04;98522.19;;;17.62;44.44
33161;BME280;19522;45.656;11.302;2023-03-20T12:26:41;98516.53;;;17.07;45.30
33161;BME280;19522;45.656;11.302;2023-03-20T12:32:09;98508.91;;;16.91;45.06
33161;BME280;19522;45.656;11.302;2023-03-20T12:34:42;98516.03;;;16.55;44.91
33161;BME280;19522;45.656;11.302;2023-03-20T12:37:11;98508.28;;;16.70;44.92
33161;BME280;19522;45.656;11.302;2023-03-20T12:39:47;98487.78;;;16.54;45.54
33161;BME280;19522;45.656;11.302;2023-03-20T12:42:35;98509.31;;;16.50;46.03
33161;BME280;19522;45.656;11.302;2023-03-20T12:45:22;98519.44;;;16.50;45.43
33161;BME280;19522;45.656;11.302;2023-03-20T12:56:27;98502.03;;;15.48;46.62
33161;BME280;19522;45.656;11.302;2023-03-20T12:59:02;98513.41;;;15.45;47.43
33161;BME280;19522;45.656;11.302;2023-03-20T13:01:46;98455.56;;;15.03;47.97
33161;BME280;19522;45.656;11.302;2023-03-20T13:05:08;98511.97;;;15.42;48.76
33161;BME280;19522;45.656;11.302;2023-03-20T13:07:59;98511.03;;;15.23;48.84
33161;BME280;19522;45.656;11.302;2023-03-20T13:10:30;98512.44;;;15.33;48.75
33161;BME280;19522;45.656;11.302;2023-03-20T13:16:02;98492.25;;;14.75;49.90
33161;BME280;19522;45.656;11.302;2023-03-20T13:18:40;98520.81;;;14.92;50.10
33161;BME280;19522;45.656;11.302;2023-03-20T13:21:31;98519.13;;;14.91;50.89
33161;BME280;19522;45.656;11.302;2023-03-20T13:24:23;98518.25;;;14.98;50.73
33161;BME280;19522;45.656;11.302;2023-03-20T13:37:47;98518.31;;;14.84;52.21
33161;BME280;19522;45.656;11.302;2023-03-20T13:40:31;98506.97;;;14.80;53.06
33161;BME280;19522;45.656;11.302;2023-03-20T13:45:39;98519.44;;;15.15;51.60
33161;BME280;19522;45.656;11.302;2023-03-20T13:51:02;98518.75;;;15.33;50.61
33161;BME280;19522;45.656;11.302;2023-03-20T13:53:56;98519.13;;;15.43;51.05
33161;BME280;19522;45.656;11.302;2023-03-20T13:56:55;98514.56;;;15.31;50.96
33161;BME280;19522;45.656;11.302;2023-03-20T13:59:51;98506.91;;;14.87;52.00
33161;BME280;19522;45.656;11.302;2023-03-20T14:04:49;98517.81;;;15.01;53.05
33161;BME280;19522;45.656;11.302;2023-03-20T14:07:46;98518.47;;;15.03;54.12
33161;BME280;19522;45.656;11.302;2023-03-20T14:15:35;98517.78;;;15.14;51.40
33161;BME280;19522;45.656;11.302;2023-03-20T14:18:04;98501.66;;;14.92;52.33
33161;BME280;19522;45.656;11.302;2023-03-20T14:20:36;98521.38;;;15.08;52.09
33161;BME280;19522;45.656;11.302;2023-03-20T14:23:03;98522.50;;;14.93;53.36
33161;BME280;19522;45.656;11.302;2023-03-20T14:25:35;98518.25;;;14.98;52.89
33161;BME280;19522;45.656;11.302;2023-03-20T14:28:24;98519.53;;;14.88;53.31
33161;BME280;19522;45.656;11.302;2023-03-20T14:30:50;98494.47;;;15.05;53.32
33161;BME280;19522;45.656;11.302;2023-03-20T14:36:09;98505.38;;;15.11;52.73
33161;BME280;19522;45.656;11.302;2023-03-20T14:41:32;98499.97;;;15.43;51.64
33161;BME280;19522;45.656;11.302;2023-03-20T14:44:23;98484.66;;;15.68;50.94
33161;BME280;19522;45.656;11.302;2023-03-20T14:57:50;98507.25;;;16.46;47.67
33161;BME280;19522;45.656;11.302;2023-03-20T15:00:20;98501.56;;;15.97;48.52
33161;BME280;19522;45.656;11.302;2023-03-20T15:02:50;98491.81;;;16.51;47.47
33161;BME280;19522;45.656;11.302;2023-03-20T15:05:34;98501.03;;;16.32;47.55
33161;BME280;19522;45.656;11.302;2023-03-20T15:08:20;98482.81;;;15.94;48.50
33161;BME280;19522;45.656;11.302;2023-03-20T15:10:53;98493.59;;;16.20;48.50
33161;BME280;19522;45.656;11.302;2023-03-20T15:13:20;98460.41;;;16.29;47.65
33161;BME280;19522;45.656;11.302;2023-03-20T15:15:56;98491.47;;;16.41;48.10
33161;BME280;19522;45.656;11.302;2023-03-20T15:18:25;98493.06;;;16.30;47.29